createdAt,value
2019-06-01T00:00:18.448Z,89.72
2019-06-01T00:01:18.521Z,90.13
2019-06-01T00:02:18.444Z,90.13
2019-06-01T00:03:18.413Z,91.05
2019-06-01T00:04:18.399Z,90.64
2019-06-01T00:05:18.405Z,91.25
2019-06-01T00:06:18.432Z,91.75
2019-06-01T00:07:18.385Z,91.35
2019-06-01T00:08:18.362Z,90.94
2019-06-01T00:09:18.391Z,90.84
2019-06-01T00:10:18.338Z,90.74
2019-06-01T00:11:18.354Z,90.23
2019-06-01T00:12:18.332Z,90.94
2019-06-01T00:13:18.320Z,91.05
2019-06-01T00:14:18.309Z,90.48
2019-06-01T00:15:18.283Z,91.29
2019-06-01T00:16:18.283Z,91.09
2019-06-01T00:17:18.257Z,91.19
2019-06-01T00:18:18.260Z,91.49
2019-06-01T00:19:18.256Z,91.80
2019-06-01T00:20:18.234Z,91.69
2019-06-01T00:21:18.235Z,91.64
2019-06-01T00:22:18.221Z,91.74
2019-06-01T00:23:18.193Z,92.04
2019-06-01T00:24:18.190Z,91.94
2019-06-01T00:25:18.181Z,92.04
2019-06-01T00:26:18.177Z,92.04
2019-06-01T00:27:18.152Z,91.84
2019-06-01T00:28:18.139Z,92.35
2019-06-01T00:29:18.151Z,92.60
2019-06-01T00:30:26.499Z,92.90
2019-06-01T00:31:19.124Z,92.65
2019-06-01T00:32:18.102Z,92.86
2019-06-01T00:33:18.090Z,92.55
2019-06-01T00:34:18.088Z,92.04
2019-06-01T00:35:18.065Z,93.26
2019-06-01T00:36:18.078Z,92.86
2019-06-01T00:37:18.043Z,92.65
2019-06-01T00:38:18.029Z,93.16
2019-06-01T00:39:18.022Z,92.76
2019-06-01T00:40:18.021Z,93.06
2019-06-01T00:41:18.012Z,92.25
2019-06-01T00:42:18.015Z,93.06
2019-06-01T00:43:17.980Z,93.06
2019-06-01T00:44:17.976Z,92.76
2019-06-01T00:45:17.957Z,92.04
2019-06-01T00:46:17.945Z,92.49
2019-06-01T00:47:17.950Z,91.94
2019-06-01T00:48:17.919Z,92.86
2019-06-01T00:49:17.909Z,92.96
2019-06-01T00:50:17.934Z,92.55
2019-06-01T00:51:17.899Z,92.76
2019-06-01T00:52:17.912Z,92.86
2019-06-01T00:53:17.868Z,92.04
2019-06-01T00:54:17.860Z,91.88
2019-06-01T00:55:17.843Z,93.21
2019-06-01T00:56:17.830Z,92.96
2019-06-01T00:57:17.840Z,92.76
2019-06-01T00:58:17.814Z,92.29
2019-06-01T00:59:17.801Z,92.60
2019-06-01T01:00:17.797Z,92.60
2019-06-01T01:01:17.775Z,92.60
2019-06-01T01:02:17.779Z,92.80
2019-06-01T01:03:17.760Z,92.84
2019-06-01T01:04:17.752Z,93.10
2019-06-01T01:05:17.746Z,93.10
2019-06-01T01:06:17.728Z,93.45
2019-06-01T01:07:17.729Z,93.41
2019-06-01T01:08:17.702Z,93.31
2019-06-01T01:09:17.686Z,93.31
2019-06-01T01:10:17.686Z,93.15
2019-06-01T01:11:17.671Z,93.62
2019-06-01T01:12:17.683Z,94.12
2019-06-01T01:13:17.643Z,93.21
2019-06-01T01:14:17.634Z,93.31
2019-06-01T01:15:17.637Z,93.41
2019-06-01T01:16:17.617Z,92.74
2019-06-01T01:17:17.606Z,93.25
2019-06-01T01:18:17.609Z,93.05
2019-06-01T01:19:17.592Z,93.66
2019-06-01T01:20:17.565Z,93.35
2019-06-01T01:21:17.556Z,93.45
2019-06-01T01:22:17.550Z,92.64
2019-06-01T01:23:17.559Z,92.94
2019-06-01T01:24:17.530Z,93.19
2019-06-01T01:25:17.519Z,93.50
2019-06-01T01:26:17.507Z,93.29
2019-06-01T01:27:17.499Z,93.40
2019-06-01T01:28:17.518Z,93.60
2019-06-01T01:29:17.478Z,93.50
2019-06-01T01:30:17.460Z,93.80
2019-06-01T01:31:17.447Z,94.11
2019-06-01T01:32:17.433Z,94.01
2019-06-01T01:33:17.442Z,94.07
2019-06-01T01:34:17.414Z,93.86
2019-06-01T01:35:17.405Z,94.57
2019-06-01T01:36:17.398Z,93.86
2019-06-01T01:37:17.391Z,94.07
2019-06-01T01:38:17.414Z,93.25
2019-06-01T01:39:17.360Z,93.45
2019-06-01T01:40:17.349Z,93.40
2019-06-01T01:41:17.343Z,93.70
2019-06-01T01:42:17.326Z,93.70
2019-06-01T01:43:17.336Z,94.11
2019-06-01T01:44:17.323Z,93.70
2019-06-01T01:45:17.291Z,94.31
2019-06-01T01:46:17.285Z,93.70
2019-06-01T01:47:17.279Z,93.40
2019-06-01T01:48:17.286Z,93.80
2019-06-01T01:49:17.262Z,94.31
2019-06-01T01:50:17.243Z,93.90
2019-06-01T01:51:17.265Z,93.50
2019-06-01T01:52:17.214Z,94.42
2019-06-01T01:53:17.203Z,94.21
2019-06-01T01:54:17.218Z,94.11
2019-06-01T01:55:17.186Z,93.90
2019-06-01T01:56:17.180Z,94.31
2019-06-01T01:57:17.170Z,94.31
2019-06-01T01:58:17.185Z,94.42
2019-06-01T01:59:17.156Z,93.50
2019-06-01T02:00:17.129Z,93.90
2019-06-01T02:01:22.575Z,94.11
2019-06-01T02:02:18.106Z,94.01
2019-06-01T02:03:17.100Z,93.70
2019-06-01T02:04:17.108Z,93.90
2019-06-01T02:05:17.071Z,94.42
2019-06-01T02:06:17.069Z,94.52
2019-06-01T02:07:17.085Z,94.92
2019-06-01T02:08:17.046Z,94.82
2019-06-01T02:09:17.067Z,94.82
2019-06-01T02:10:17.021Z,95.53
2019-06-01T02:11:17.008Z,95.23
2019-06-01T02:12:17.008Z,94.82
2019-06-01T02:13:16.985Z,95.17
2019-06-01T02:14:17.003Z,94.46
2019-06-01T02:15:16.968Z,95.21
2019-06-01T02:16:16.969Z,94.87
2019-06-01T02:17:16.948Z,94.87
2019-06-01T02:18:16.930Z,94.97
2019-06-01T02:19:16.937Z,95.01
2019-06-01T02:20:16.916Z,94.97
2019-06-01T02:21:16.902Z,95.21
2019-06-01T02:22:16.895Z,94.40
2019-06-01T02:23:16.876Z,95.21
2019-06-01T02:24:16.883Z,95.37
2019-06-01T02:25:16.854Z,95.17
2019-06-01T02:26:16.843Z,95.17
2019-06-01T02:27:16.855Z,95.07
2019-06-01T02:28:16.826Z,95.07
2019-06-01T02:29:16.831Z,94.91
2019-06-01T02:30:16.818Z,95.01
2019-06-01T02:31:16.790Z,95.62
2019-06-01T02:32:16.775Z,95.07
2019-06-01T02:33:16.814Z,95.28
2019-06-01T02:34:16.776Z,95.48
2019-06-01T02:35:16.766Z,94.66
2019-06-01T02:36:16.741Z,95.07
2019-06-01T02:37:16.721Z,95.17
2019-06-01T02:38:16.717Z,95.12
2019-06-01T02:39:16.732Z,95.12
2019-06-01T02:40:16.698Z,95.12
2019-06-01T02:41:16.688Z,94.95
2019-06-01T02:42:16.673Z,94.65
2019-06-01T02:43:16.665Z,95.36
2019-06-01T02:44:16.660Z,95.32
2019-06-01T02:45:16.644Z,95.62
2019-06-01T02:46:16.627Z,95.93
2019-06-01T02:47:16.625Z,95.93
2019-06-01T02:48:16.607Z,95.12
2019-06-01T02:49:16.610Z,95.83
2019-06-01T02:50:16.594Z,95.62
2019-06-01T02:51:16.578Z,95.57
2019-06-01T02:52:16.567Z,95.83
2019-06-01T02:53:16.555Z,95.47
2019-06-01T02:54:16.560Z,95.36
2019-06-01T02:55:16.530Z,95.16
2019-06-01T02:56:16.513Z,95.47
2019-06-01T02:57:16.503Z,95.52
2019-06-01T02:58:16.493Z,95.52
2019-06-01T02:59:16.501Z,95.83
2019-06-01T03:00:16.505Z,95.77
2019-06-01T03:01:16.472Z,95.67
2019-06-01T03:02:16.453Z,95.57
2019-06-01T03:03:16.441Z,95.77
2019-06-01T03:04:16.453Z,95.83
2019-06-01T03:05:16.433Z,95.52
2019-06-01T03:06:16.413Z,95.67
2019-06-01T03:07:16.401Z,95.67
2019-06-01T03:08:16.386Z,95.16
2019-06-01T03:09:16.394Z,95.16
2019-06-01T03:10:16.370Z,95.67
2019-06-01T03:11:16.357Z,95.47
2019-06-01T03:12:16.348Z,96.08
2019-06-01T03:13:16.340Z,95.36
2019-06-01T03:14:16.324Z,95.36
2019-06-01T03:15:16.332Z,95.57
2019-06-01T03:16:16.296Z,95.36
2019-06-01T03:17:16.286Z,95.41
2019-06-01T03:18:16.279Z,95.61
2019-06-01T03:19:16.271Z,95.81
2019-06-01T03:20:16.274Z,96.12
2019-06-01T03:21:16.241Z,95.72
2019-06-01T03:22:16.246Z,95.72
2019-06-01T03:23:16.230Z,95.81
2019-06-01T03:24:16.219Z,95.72
2019-06-01T03:25:16.219Z,95.51
2019-06-01T03:26:16.193Z,96.33
2019-06-01T03:27:16.185Z,96.58
2019-06-01T03:28:16.166Z,96.33
2019-06-01T03:29:16.156Z,96.58
2019-06-01T03:30:16.174Z,96.43
2019-06-01T03:31:16.139Z,96.33
2019-06-01T03:32:34.436Z,97.14
2019-06-01T03:33:17.122Z,97.09
2019-06-01T03:34:16.109Z,97.30
2019-06-01T03:35:16.106Z,97.09
2019-06-01T03:36:16.096Z,97.00
2019-06-01T03:37:16.083Z,97.00
2019-06-01T03:38:16.062Z,96.59
2019-06-01T03:39:16.050Z,96.48
2019-06-01T03:40:23.735Z,95.57
2019-06-01T03:41:17.024Z,95.77
2019-06-01T03:42:16.015Z,96.08
2019-06-01T03:43:16.006Z,96.33
2019-06-01T03:44:16.003Z,96.48
2019-06-01T03:45:16.002Z,96.28
2019-06-01T03:46:15.975Z,95.77
2019-06-01T03:47:15.966Z,95.97
2019-06-01T03:48:15.946Z,95.87
2019-06-01T03:49:15.940Z,95.97
2019-06-01T03:50:15.942Z,95.73
2019-06-01T03:51:15.919Z,95.67
2019-06-01T03:52:15.914Z,95.47
2019-06-01T03:53:15.893Z,95.47
2019-06-01T03:54:15.887Z,95.32
2019-06-01T03:55:15.892Z,95.57
2019-06-01T03:56:15.866Z,95.42
2019-06-01T03:57:15.857Z,95.12
2019-06-01T03:58:15.845Z,94.05
2019-06-01T03:59:15.847Z,94.05
2019-06-01T04:00:15.832Z,94.01
2019-06-01T04:01:15.806Z,93.90
2019-06-01T04:02:15.797Z,92.94
2019-06-01T04:03:15.788Z,92.40
2019-06-01T04:04:15.803Z,91.99
2019-06-01T04:05:15.795Z,91.78
2019-06-01T04:06:15.758Z,91.23
2019-06-01T04:07:15.741Z,89.76
2019-06-01T04:08:15.730Z,89.92
2019-06-01T04:09:15.727Z,89.98
2019-06-01T04:10:15.731Z,89.37
2019-06-01T04:11:15.702Z,88.67
2019-06-01T04:12:15.693Z,88.48
2019-06-01T04:13:15.673Z,87.32
2019-06-01T04:14:15.665Z,85.46
2019-06-01T04:15:16.937Z,83.55
2019-06-01T04:16:15.649Z,81.65
2019-06-01T04:17:15.631Z,80.16
2019-06-01T04:18:15.622Z,77.36
2019-06-01T04:19:15.613Z,76.58
2019-06-01T04:20:15.620Z,74.73
2019-06-01T04:21:15.594Z,73.88
2019-06-01T04:22:15.599Z,73.45
2019-06-01T04:23:15.568Z,72.37
2019-06-01T04:24:15.552Z,71.13
2019-06-01T04:25:15.564Z,69.12
2019-06-01T04:26:15.539Z,68.15
2019-06-01T04:27:15.525Z,66.52
2019-06-01T04:28:15.509Z,65.45
2019-06-01T04:29:15.498Z,65.25
2019-06-01T04:30:15.491Z,65.28
2019-06-01T04:31:15.496Z,65.48
2019-06-01T04:32:15.474Z,64.58
2019-06-01T04:33:15.467Z,65.68
2019-06-01T04:34:15.448Z,65.98
2019-06-01T04:35:15.551Z,65.38
2019-06-01T04:36:15.485Z,64.95
2019-06-01T04:37:15.443Z,64.72
2019-06-01T04:38:15.403Z,64.22
2019-06-01T04:39:15.394Z,64.09
2019-06-01T04:40:15.385Z,63.28
2019-06-01T04:41:15.385Z,62.72
2019-06-01T04:42:15.364Z,62.25
2019-06-01T04:43:15.351Z,62.98
2019-06-01T04:44:18.158Z,64.25
2019-06-01T04:45:15.350Z,65.15
2019-06-01T04:46:15.331Z,65.48
2019-06-01T04:47:15.309Z,65.98
2019-06-01T04:48:15.291Z,65.48
2019-06-01T04:49:15.285Z,65.38
2019-06-01T04:50:15.272Z,64.65
2019-06-01T04:51:15.275Z,64.22
2019-06-01T04:52:15.336Z,62.88
2019-06-01T04:53:15.243Z,62.65
2019-06-01T04:54:16.032Z,62.22
2019-06-01T04:55:15.255Z,62.22
2019-06-01T04:56:15.345Z,62.02
2019-06-01T04:57:15.220Z,62.32
2019-06-01T04:58:15.207Z,62.32
2019-06-01T04:59:15.492Z,62.52
2019-06-01T05:00:26.044Z,62.42
2019-06-01T05:01:16.167Z,62.32
2019-06-01T05:02:15.280Z,62.42
2019-06-01T05:03:15.452Z,62.88
2019-06-01T05:04:15.525Z,64.01
2019-06-01T05:05:15.480Z,65.05
2019-06-01T05:06:15.506Z,65.75
2019-06-01T05:07:15.492Z,65.48
2019-06-01T05:08:15.618Z,65.38
2019-06-01T05:09:15.728Z,66.05
2019-06-01T05:10:16.095Z,66.18
2019-06-01T05:11:15.678Z,65.58
2019-06-01T05:12:15.560Z,65.75
2019-06-01T05:13:15.653Z,66.38
2019-06-01T05:14:16.569Z,66.05
2019-06-01T05:15:16.121Z,65.55
2019-06-01T05:16:16.476Z,66.35
2019-06-01T05:17:16.574Z,66.38
2019-06-01T05:18:18.294Z,67.18
2019-06-01T05:19:16.426Z,66.68
2019-06-01T05:20:14.944Z,66.75
2019-06-01T05:21:15.243Z,66.91
2019-06-01T05:22:14.939Z,67.92
2019-06-01T05:23:14.918Z,68.02
2019-06-01T05:24:14.907Z,68.08
2019-06-01T05:25:15.322Z,66.85
2019-06-01T05:26:15.131Z,66.22
2019-06-01T05:27:15.239Z,66.35
2019-06-01T05:28:15.321Z,66.85
2019-06-01T05:29:15.704Z,67.25
2019-06-01T05:30:15.696Z,66.19
2019-06-01T05:31:23.030Z,65.16
2019-06-01T05:32:16.752Z,64.03
2019-06-01T05:33:32.022Z,64.22
2019-06-01T05:34:15.960Z,64.45
2019-06-01T05:35:15.826Z,64.25
2019-06-01T05:36:16.156Z,64.22
2019-06-01T05:37:14.778Z,64.32
2019-06-01T05:38:14.757Z,64.09
2019-06-01T05:39:14.745Z,62.40
2019-06-01T05:40:14.872Z,60.55
2019-06-01T05:41:15.031Z,60.29
2019-06-01T05:42:14.845Z,58.67
2019-06-01T05:43:17.532Z,57.92
2019-06-01T05:44:14.943Z,57.17
2019-06-01T05:45:15.125Z,56.87
2019-06-01T05:46:15.987Z,56.30
2019-06-01T05:47:14.673Z,56.62
2019-06-01T05:48:22.598Z,57.79
2019-06-01T05:49:16.440Z,56.89
2019-06-01T05:50:14.621Z,57.29
2019-06-01T05:51:16.860Z,56.20
2019-06-01T05:52:14.609Z,57.75
2019-06-01T05:53:14.625Z,58.04
2019-06-01T05:54:14.638Z,58.57
2019-06-01T05:55:14.731Z,59.85
2019-06-01T05:56:14.801Z,60.55
2019-06-01T05:57:14.735Z,61.83
2019-06-01T05:58:15.140Z,62.93
2019-06-01T05:59:14.525Z,63.76
2019-06-01T06:00:15.048Z,63.49
2019-06-01T06:01:14.829Z,63.79
2019-06-01T06:02:15.218Z,64.49
2019-06-01T06:03:16.073Z,63.19
2019-06-01T06:04:15.367Z,63.72
2019-06-01T06:05:14.684Z,65.55
2019-06-01T06:06:15.730Z,64.92
2019-06-01T06:07:14.801Z,63.79
2019-06-01T06:08:14.875Z,63.69
2019-06-01T06:09:14.805Z,63.89
2019-06-01T06:10:14.407Z,63.56
2019-06-01T06:11:14.930Z,63.23
2019-06-01T06:12:15.490Z,63.20
2019-06-01T06:13:15.282Z,63.07
2019-06-01T06:14:15.499Z,61.15
2019-06-01T06:15:15.619Z,62.04
2019-06-01T06:16:15.648Z,61.22
2019-06-01T06:17:17.064Z,60.89
2019-06-01T06:18:14.319Z,60.49
2019-06-01T06:19:17.816Z,60.79
2019-06-01T06:20:15.964Z,58.14
2019-06-01T06:21:14.297Z,58.61
2019-06-01T06:22:14.296Z,58.22
2019-06-01T06:23:14.335Z,57.82
2019-06-01T06:24:14.337Z,57.82
2019-06-01T06:25:14.426Z,56.57
2019-06-01T06:26:15.536Z,56.47
2019-06-01T06:27:14.522Z,56.47
2019-06-01T06:28:14.604Z,57.19
2019-06-01T06:29:14.706Z,57.06
2019-06-01T06:30:14.833Z,56.47
2019-06-01T06:31:15.039Z,56.87
2019-06-01T06:32:15.071Z,57.32
2019-06-01T06:33:15.196Z,58.14
2019-06-01T06:34:15.191Z,58.54
2019-06-01T06:35:15.285Z,59.47
2019-06-01T06:36:14.118Z,59.27
2019-06-01T06:37:14.145Z,58.64
2019-06-01T06:38:14.118Z,58.78
2019-06-01T06:39:14.128Z,56.44
2019-06-01T06:40:14.113Z,56.12
2019-06-01T06:41:14.069Z,54.90
2019-06-01T06:42:14.104Z,54.50
2019-06-01T06:43:22.131Z,55.79
2019-06-01T06:44:15.036Z,55.57
2019-06-01T06:45:14.566Z,54.75
2019-06-01T06:46:14.541Z,55.32
2019-06-01T06:47:14.711Z,53.90
2019-06-01T06:48:14.908Z,53.48
2019-06-01T06:49:15.006Z,52.96
2019-06-01T06:50:14.907Z,51.45
2019-06-01T06:51:15.090Z,51.94
2019-06-01T06:52:15.180Z,51.67
2019-06-01T06:53:25.418Z,52.24
2019-06-01T06:54:16.028Z,51.42
2019-06-01T06:55:13.914Z,52.07
2019-06-01T06:56:13.899Z,51.97
2019-06-01T06:57:13.906Z,52.26
2019-06-01T06:58:13.903Z,52.78
2019-06-01T06:59:13.904Z,54.10
2019-06-01T07:00:13.863Z,53.60
2019-06-01T07:01:13.858Z,53.45
2019-06-01T07:02:13.841Z,53.96
2019-06-01T07:03:13.870Z,53.83
2019-06-01T07:04:13.815Z,53.58
2019-06-01T07:05:13.809Z,52.86
2019-06-01T07:06:13.818Z,51.65
2019-06-01T07:07:13.776Z,51.65
2019-06-01T07:08:13.794Z,52.44
2019-06-01T07:09:13.752Z,52.07
2019-06-01T07:10:13.748Z,52.26
2019-06-01T07:11:13.742Z,51.47
2019-06-01T07:12:13.746Z,51.89
2019-06-01T07:13:13.728Z,52.29
2019-06-01T07:14:13.704Z,52.07
2019-06-01T07:15:13.701Z,51.32
2019-06-01T07:16:13.703Z,51.57
2019-06-01T07:17:15.803Z,50.83
2019-06-01T07:18:13.665Z,49.62
2019-06-01T07:19:13.645Z,48.81
2019-06-01T07:20:13.649Z,47.82
2019-06-01T07:21:13.632Z,46.72
2019-06-01T07:22:16.830Z,47.60
2019-06-01T07:23:13.615Z,47.28
2019-06-01T07:24:13.591Z,46.08
2019-06-01T07:25:13.600Z,46.60
2019-06-01T07:26:13.570Z,44.87
2019-06-01T07:27:13.564Z,44.51
2019-06-01T07:28:13.556Z,40.62
2019-06-01T07:29:13.558Z,39.92
2019-06-01T07:30:13.542Z,41.00
2019-06-01T07:31:13.518Z,40.56
2019-06-01T07:32:13.509Z,38.30
2019-06-01T07:33:13.513Z,38.48
2019-06-01T07:34:29.611Z,38.04
2019-06-01T07:35:14.474Z,37.81
2019-06-01T07:36:13.460Z,36.33
2019-06-01T07:37:13.466Z,36.08
2019-06-01T07:38:13.474Z,35.37
2019-06-01T07:39:13.436Z,34.11
2019-06-01T07:40:14.174Z,35.29
2019-06-01T07:41:13.437Z,35.19
2019-06-01T07:42:13.419Z,35.31
2019-06-01T07:43:13.417Z,35.71
2019-06-01T07:44:13.383Z,35.49
2019-06-01T07:45:13.373Z,34.59
2019-06-01T07:46:13.363Z,34.16
2019-06-01T07:47:13.353Z,33.04
2019-06-01T07:48:13.392Z,31.09
2019-06-01T07:49:13.375Z,31.94
2019-06-01T07:50:13.326Z,30.78
2019-06-01T07:51:13.337Z,30.98
2019-06-01T07:52:13.713Z,31.16
2019-06-01T07:53:13.316Z,31.05
2019-06-01T07:54:13.486Z,31.52
2019-06-01T07:55:13.288Z,31.10
2019-06-01T07:56:13.311Z,30.49
2019-06-01T07:57:13.268Z,29.32
2019-06-01T07:58:13.304Z,29.61
2019-06-01T07:59:13.278Z,30.29
2019-06-01T08:00:13.245Z,29.32
2019-06-01T08:01:13.223Z,29.22
2019-06-01T08:02:13.242Z,29.45
2019-06-01T08:03:13.304Z,29.80
2019-06-01T08:04:13.235Z,29.03
2019-06-01T08:05:13.199Z,29.53
2019-06-01T08:06:13.193Z,29.43
2019-06-01T08:07:13.185Z,28.87
2019-06-01T08:08:13.239Z,30.85
2019-06-01T08:09:13.215Z,30.69
2019-06-01T08:10:13.178Z,31.50
2019-06-01T08:11:13.151Z,32.09
2019-06-01T08:12:13.154Z,31.09
2019-06-01T08:13:13.149Z,30.46
2019-06-01T08:14:13.144Z,30.08
2019-06-01T08:15:13.124Z,29.17
2019-06-01T08:16:13.113Z,29.46
2019-06-01T08:17:13.146Z,29.32
2019-06-01T08:18:13.089Z,28.05
2019-06-01T08:19:13.104Z,28.04
2019-06-01T08:20:13.079Z,27.71
2019-06-01T08:21:13.120Z,28.52
2019-06-01T08:22:13.131Z,29.91
2019-06-01T08:23:13.053Z,29.08
2019-06-01T08:24:13.198Z,28.07
2019-06-01T08:25:13.222Z,28.20
2019-06-01T08:26:13.023Z,27.69
2019-06-01T08:27:13.027Z,26.09
2019-06-01T08:28:13.036Z,25.11
2019-06-01T08:29:13.061Z,26.12
2019-06-01T08:30:13.000Z,25.32
2019-06-01T08:31:13.050Z,23.09
2019-06-01T08:32:13.038Z,23.94
2019-06-01T08:33:12.974Z,23.77
2019-06-01T08:34:13.062Z,25.25
2019-06-01T08:35:12.969Z,24.19
2019-06-01T08:36:12.955Z,24.94
2019-06-01T08:37:12.973Z,24.63
2019-06-01T08:38:12.958Z,24.68
2019-06-01T08:39:13.018Z,24.30
2019-06-01T08:40:12.917Z,23.05
2019-06-01T08:41:13.021Z,23.03
2019-06-01T08:42:12.938Z,24.70
2019-06-01T08:43:12.893Z,24.11
2019-06-01T08:44:12.957Z,25.10
2019-06-01T08:45:12.881Z,25.29
2019-06-01T08:46:12.870Z,24.98
2019-06-01T08:47:12.869Z,23.79
2019-06-01T08:48:12.859Z,22.55
2019-06-01T08:49:12.934Z,24.43
2019-06-01T08:50:12.863Z,24.81
2019-06-01T08:51:12.832Z,27.66
2019-06-01T08:52:12.852Z,27.28
2019-06-01T08:53:12.829Z,27.15
2019-06-01T08:54:12.809Z,26.53
2019-06-01T08:55:12.896Z,25.85
2019-06-01T08:56:12.805Z,25.26
2019-06-01T08:57:12.784Z,25.99
2019-06-01T08:58:12.779Z,26.16
2019-06-01T08:59:12.860Z,27.23
2019-06-01T09:00:12.781Z,26.15
2019-06-01T09:01:12.772Z,27.47
2019-06-01T09:02:12.761Z,28.18
2019-06-01T09:03:12.741Z,27.64
2019-06-01T09:04:12.738Z,27.66
2019-06-01T09:05:23.816Z,26.29
2019-06-01T09:06:13.719Z,26.34
2019-06-01T09:07:12.732Z,26.51
2019-06-01T09:08:12.725Z,26.29
2019-06-01T09:09:12.731Z,27.23
2019-06-01T09:10:12.727Z,27.91
2019-06-01T09:11:12.704Z,29.20
2019-06-01T09:12:12.707Z,29.69
2019-06-01T09:13:12.681Z,28.26
2019-06-01T09:14:12.728Z,27.17
2019-06-01T09:15:12.846Z,26.07
2019-06-01T09:16:12.666Z,24.68
2019-06-01T09:17:12.646Z,24.85
2019-06-01T09:18:12.682Z,25.52
2019-06-01T09:19:12.641Z,24.84
2019-06-01T09:20:12.649Z,25.57
2019-06-01T09:21:12.619Z,23.63
2019-06-01T09:22:12.639Z,23.16
2019-06-01T09:23:12.599Z,23.71
2019-06-01T09:24:12.604Z,23.04
2019-06-01T09:25:12.634Z,21.97
2019-06-01T09:26:12.597Z,22.94
2019-06-01T09:27:12.621Z,23.54
2019-06-01T09:28:12.567Z,24.30
2019-06-01T09:29:12.554Z,23.35
2019-06-01T09:30:12.560Z,22.09
2019-06-01T09:31:12.550Z,22.68
2019-06-01T09:32:12.555Z,23.55
2019-06-01T09:33:12.526Z,23.55
2019-06-01T09:34:12.526Z,24.71
2019-06-01T09:35:12.528Z,23.07
2019-06-01T09:36:12.513Z,21.90
2019-06-01T09:37:12.510Z,22.18
2019-06-01T09:38:12.484Z,23.14
2019-06-01T09:39:12.488Z,23.75
2019-06-01T09:40:12.826Z,22.97
2019-06-01T09:41:12.498Z,23.57
2019-06-01T09:42:12.501Z,24.46
2019-06-01T09:43:12.449Z,24.01
2019-06-01T09:44:12.442Z,25.72
2019-06-01T09:45:12.460Z,24.04
2019-06-01T09:46:12.444Z,23.92
2019-06-01T09:47:12.551Z,24.13
2019-06-01T09:48:12.445Z,23.24
2019-06-01T09:49:12.411Z,24.30
2019-06-01T09:50:12.415Z,25.79
2019-06-01T09:51:12.396Z,27.29
2019-06-01T09:52:12.937Z,28.56
2019-06-01T09:53:12.387Z,29.01
2019-06-01T09:54:12.390Z,26.51
2019-06-01T09:55:12.356Z,24.22
2019-06-01T09:56:12.370Z,25.06
2019-06-01T09:57:12.344Z,23.21
2019-06-01T09:58:12.398Z,23.75
2019-06-01T09:59:12.390Z,23.93
2019-06-01T10:00:12.325Z,23.80
2019-06-01T10:01:12.857Z,23.13
2019-06-01T10:02:12.334Z,21.39
2019-06-01T10:03:12.359Z,22.60
2019-06-01T10:04:12.288Z,23.41
2019-06-01T10:05:12.314Z,22.45
2019-06-01T10:06:14.232Z,21.74
2019-06-01T10:07:12.290Z,22.60
2019-06-01T10:08:12.256Z,21.04
2019-06-01T10:09:12.245Z,19.60
2019-06-01T10:10:12.250Z,20.75
2019-06-01T10:11:12.256Z,21.03
2019-06-01T10:12:12.253Z,22.19
2019-06-01T10:13:12.368Z,23.96
2019-06-01T10:14:12.253Z,24.08
2019-06-01T10:15:12.206Z,21.26
2019-06-01T10:16:12.217Z,22.58
2019-06-01T10:17:12.234Z,20.95
2019-06-01T10:18:12.176Z,22.19
2019-06-01T10:19:12.164Z,22.56
2019-06-01T10:20:12.156Z,23.18
2019-06-01T10:21:12.169Z,23.26
2019-06-01T10:22:12.169Z,23.54
2019-06-01T10:23:12.173Z,22.67
2019-06-01T10:24:12.130Z,23.54
2019-06-01T10:25:12.118Z,24.34
2019-06-01T10:26:12.134Z,25.54
2019-06-01T10:27:12.102Z,24.79
2019-06-01T10:28:12.093Z,25.49
2019-06-01T10:29:12.117Z,27.97
2019-06-01T10:30:12.070Z,27.91
2019-06-01T10:31:12.099Z,27.94
2019-06-01T10:32:12.140Z,28.88
2019-06-01T10:33:12.045Z,29.21
2019-06-01T10:34:12.036Z,31.22
2019-06-01T10:35:12.037Z,32.04
2019-06-01T10:36:20.552Z,35.42
2019-06-01T10:37:13.019Z,35.50
2019-06-01T10:38:12.026Z,37.01
2019-06-01T10:39:12.002Z,34.66
2019-06-01T10:40:11.990Z,36.67
2019-06-01T10:41:11.997Z,37.26
2019-06-01T10:42:11.999Z,36.40
2019-06-01T10:43:11.963Z,38.18
2019-06-01T10:44:11.945Z,38.09
2019-06-01T10:45:11.934Z,38.76
2019-06-01T10:46:11.959Z,39.76
2019-06-01T10:47:11.915Z,41.85
2019-06-01T10:48:11.915Z,40.39
2019-06-01T10:49:11.923Z,40.31
2019-06-01T10:50:11.893Z,42.52
2019-06-01T10:51:11.872Z,42.22
2019-06-01T10:52:11.902Z,42.76
2019-06-01T10:53:11.850Z,43.45
2019-06-01T10:54:11.850Z,42.96
2019-06-01T10:55:11.851Z,43.92
2019-06-01T10:56:11.824Z,43.03
2019-06-01T10:57:11.834Z,43.21
2019-06-01T10:58:11.813Z,42.52
2019-06-01T10:59:11.800Z,42.93
2019-06-01T11:00:11.781Z,43.35
2019-06-01T11:01:11.777Z,44.54
2019-06-01T11:02:11.789Z,43.45
2019-06-01T11:03:11.754Z,43.74
2019-06-01T11:04:11.737Z,44.26
2019-06-01T11:05:11.757Z,43.79
2019-06-01T11:06:11.727Z,44.45
2019-06-01T11:07:11.732Z,45.95
2019-06-01T11:08:11.705Z,46.15
2019-06-01T11:09:11.685Z,45.95
2019-06-01T11:10:11.701Z,46.05
2019-06-01T11:11:11.671Z,45.56
2019-06-01T11:12:11.674Z,46.72
2019-06-01T11:13:11.646Z,45.23
2019-06-01T11:14:11.632Z,48.01
2019-06-01T11:15:11.654Z,45.61
2019-06-01T11:16:11.614Z,45.93
2019-06-01T11:17:11.620Z,47.02
2019-06-01T11:18:11.609Z,45.89
2019-06-01T11:19:11.594Z,46.66
2019-06-01T11:20:11.569Z,46.63
2019-06-01T11:21:11.566Z,45.23
2019-06-01T11:22:11.564Z,43.73
2019-06-01T11:23:11.533Z,43.21
2019-06-01T11:24:11.800Z,43.52
2019-06-01T11:25:11.530Z,43.74
2019-06-01T11:26:11.501Z,44.32
2019-06-01T11:27:11.517Z,45.01
2019-06-01T11:28:11.500Z,42.05
2019-06-01T11:29:11.483Z,43.35
2019-06-01T11:30:11.485Z,44.34
2019-06-01T11:31:11.449Z,45.30
2019-06-01T11:32:11.462Z,43.33
2019-06-01T11:33:11.429Z,41.46
2019-06-01T11:34:11.418Z,42.05
2019-06-01T11:35:11.422Z,41.46
2019-06-01T11:36:11.412Z,42.93
2019-06-01T11:37:15.267Z,43.57
2019-06-01T11:38:11.411Z,43.96
2019-06-01T11:39:11.385Z,45.81
2019-06-01T11:40:11.370Z,47.12
2019-06-01T11:41:11.353Z,48.03
2019-06-01T11:42:11.364Z,46.72
2019-06-01T11:43:11.325Z,45.83
2019-06-01T11:44:11.321Z,45.63
2019-06-01T11:45:11.311Z,46.80
2019-06-01T11:46:11.297Z,47.09
2019-06-01T11:47:11.295Z,45.81
2019-06-01T11:48:11.293Z,47.00
2019-06-01T11:49:11.268Z,46.80
2019-06-01T11:50:11.268Z,45.93
2019-06-01T11:51:11.261Z,46.80
2019-06-01T11:52:11.242Z,45.68
2019-06-01T11:53:11.235Z,45.29
2019-06-01T11:54:11.221Z,43.79
2019-06-01T11:55:11.198Z,44.58
2019-06-01T11:56:11.348Z,44.18
2019-06-01T11:57:11.175Z,42.48
2019-06-01T11:58:11.374Z,42.46
2019-06-01T11:59:11.158Z,42.76
2019-06-01T12:00:11.149Z,41.85
2019-06-01T12:01:11.156Z,40.98
2019-06-01T12:02:11.131Z,43.03
2019-06-01T12:03:11.125Z,42.66
2019-06-01T12:04:11.098Z,41.75
2019-06-01T12:05:11.101Z,41.06
2019-06-01T12:06:11.076Z,40.17
2019-06-01T12:07:17.440Z,40.17
2019-06-01T12:08:12.072Z,39.60
2019-06-01T12:09:11.044Z,42.19
2019-06-01T12:10:11.041Z,42.99
2019-06-01T12:11:11.035Z,45.07
2019-06-01T12:12:11.016Z,43.87
2019-06-01T12:13:11.017Z,42.40
2019-06-01T12:14:10.998Z,43.47
2019-06-01T12:15:10.978Z,42.97
2019-06-01T12:16:10.977Z,42.48
2019-06-01T12:17:10.960Z,42.78
2019-06-01T12:18:10.962Z,43.59
2019-06-01T12:19:10.943Z,41.52
2019-06-01T12:20:10.937Z,42.70
2019-06-01T12:21:10.921Z,42.43
2019-06-01T12:22:10.911Z,43.91
2019-06-01T12:23:10.911Z,42.52
2019-06-01T12:24:10.919Z,42.82
2019-06-01T12:25:10.876Z,42.84
2019-06-01T12:26:10.870Z,41.65
2019-06-01T12:27:10.851Z,42.62
2019-06-01T12:28:10.844Z,42.84
2019-06-01T12:29:10.853Z,42.14
2019-06-01T12:30:10.819Z,45.43
2019-06-01T12:31:10.820Z,43.75
2019-06-01T12:32:10.803Z,45.23
2019-06-01T12:33:10.792Z,45.95
2019-06-01T12:34:10.797Z,46.03
2019-06-01T12:35:10.765Z,45.26
2019-06-01T12:36:10.758Z,45.97
2019-06-01T12:37:10.784Z,45.57
2019-06-01T12:38:10.741Z,46.27
2019-06-01T12:39:10.742Z,45.57
2019-06-01T12:40:10.741Z,46.07
2019-06-01T12:41:10.698Z,45.45
2019-06-01T12:42:10.687Z,45.16
2019-06-01T12:43:10.681Z,45.36
2019-06-01T12:44:10.717Z,45.16
2019-06-01T12:45:10.657Z,46.94
2019-06-01T12:46:10.665Z,45.16
2019-06-01T12:47:10.629Z,45.26
2019-06-01T12:48:10.678Z,45.85
2019-06-01T12:49:10.636Z,45.36
2019-06-01T12:50:10.660Z,47.71
2019-06-01T12:51:10.590Z,44.35
2019-06-01T12:52:10.574Z,45.53